createdAt,value
2023-05-25T00:00:11.846Z,100217.55
2023-05-25T00:02:40.829Z,100218.35
2023-05-25T00:05:11.383Z,100216.11
2023-05-25T00:07:40.365Z,100216.98
2023-05-25T00:10:09.847Z,100219.34
2023-05-25T00:12:38.880Z,100220.94
2023-05-25T00:15:07.786Z,100219.66
2023-05-25T00:17:38.057Z,100221.13
2023-05-25T00:20:08.626Z,100221.44
2023-05-25T00:22:40.353Z,100223.98
2023-05-25T00:25:10.065Z,100224.98
2023-05-25T00:27:38.965Z,100221.44
2023-05-25T00:30:08.162Z,100213.98
2023-05-25T00:32:37.138Z,100213.48
2023-05-25T00:35:06.189Z,100212.13
2023-05-25T00:37:35.058Z,100214.23
2023-05-25T00:40:03.482Z,100209.58
2023-05-25T00:42:31.726Z,100209.67
2023-05-25T00:45:00.507Z,100207.77
2023-05-25T00:47:33.211Z,100207.59
2023-05-25T00:50:02.625Z,100204.39
2023-05-25T00:52:32.104Z,100202.95
2023-05-25T00:55:02.006Z,100207.59
2023-05-25T00:57:34.792Z,100205.17
2023-05-25T01:00:05.649Z,100207.95
2023-05-25T01:02:34.057Z,100210.87
2023-05-25T01:05:03.174Z,100214.63
2023-05-25T01:07:31.621Z,100218.45
2023-05-25T01:10:02.341Z,100222.58
2023-05-25T01:12:31.176Z,100222.82
2023-05-25T01:14:59.154Z,100222.33
2023-05-25T01:17:30.991Z,100217.58
2023-05-25T01:22:55.584Z,100215.65
2023-05-25T01:25:52.590Z,100213.55
2023-05-25T01:28:29.792Z,100212.55
2023-05-25T01:30:58.788Z,100207.67
2023-05-25T01:33:28.860Z,100209.77
2023-05-25T01:35:57.004Z,100208.63
2023-05-25T01:38:26.261Z,100209.05
2023-05-25T01:40:54.614Z,100212.23
2023-05-25T01:43:23.329Z,100214.46
2023-05-25T01:45:52.481Z,100213.70
2023-05-25T01:48:27.675Z,100218.16
2023-05-25T01:51:01.365Z,100218.89
2023-05-25T01:53:37.998Z,100222.82
2023-05-25T01:56:09.286Z,100226.04
2023-05-25T01:58:43.377Z,100227.83
2023-05-25T02:01:13.447Z,100230.61
2023-05-25T02:03:42.933Z,100234.11
2023-05-25T02:06:11.366Z,100233.20
2023-05-25T02:08:40.294Z,100230.50
2023-05-25T02:11:09.587Z,100231.27
2023-05-25T02:13:38.174Z,100229.34
2023-05-25T02:16:07.911Z,100231.42
2023-05-25T02:18:36.697Z,100235.38
2023-05-25T02:21:04.799Z,100237.55
2023-05-25T02:23:33.650Z,100234.77
2023-05-25T02:26:02.882Z,100229.52
2023-05-25T02:41:03.643Z,100239.63
2023-05-25T02:44:14.579Z,100241.20
2023-05-25T02:47:25.993Z,100243.07
2023-05-25T02:53:30.204Z,100241.73
2023-05-25T02:56:25.560Z,100243.23
2023-05-25T03:02:16.347Z,100244.65
2023-05-25T03:05:37.747Z,100245.70
2023-05-25T03:12:00.315Z,100240.94
2023-05-25T03:14:55.407Z,100236.16
2023-05-25T03:17:39.684Z,100231.77
2023-05-25T03:20:35.367Z,100231.57
2023-05-25T03:26:01.385Z,100236.52
2023-05-25T03:29:01.810Z,100239.63
2023-05-25T03:31:45.908Z,100238.52
2023-05-25T03:34:42.594Z,100240.04
2023-05-25T03:37:28.923Z,100242.20
2023-05-25T03:40:25.037Z,100247.48
2023-05-25T03:43:42.862Z,100249.55
2023-05-25T03:46:57.360Z,100248.52
2023-05-25T04:02:20.263Z,100244.44
2023-05-25T04:11:08.159Z,100248.73
2023-05-25T04:13:40.830Z,100248.33
2023-05-25T04:16:13.536Z,100251.40
2023-05-25T04:18:42.835Z,100254.66
2023-05-25T04:21:13.757Z,100260.77
2023-05-25T04:23:44.081Z,100258.14
2023-05-25T04:26:12.719Z,100258.67
2023-05-25T04:28:43.738Z,100261.94
2023-05-25T04:31:27.913Z,100263.73
2023-05-25T04:34:15.626Z,100261.92
2023-05-25T04:36:51.798Z,100261.42
2023-05-25T04:39:22.142Z,100258.02
2023-05-25T04:41:54.708Z,100258.00
2023-05-25T04:44:25.206Z,100256.09
2023-05-25T04:46:56.490Z,100256.66
2023-05-25T04:49:32.202Z,100255.82
2023-05-25T04:52:03.857Z,100256.09
2023-05-25T04:54:42.636Z,100254.92
2023-05-25T04:57:12.830Z,100250.64
2023-05-25T04:59:45.218Z,100249.90
2023-05-25T05:02:14.219Z,100250.20
2023-05-25T05:04:44.198Z,100249.65
2023-05-25T05:07:14.123Z,100250.27
2023-05-25T05:09:42.719Z,100247.74
2023-05-25T05:12:14.287Z,100251.71
2023-05-25T05:14:54.340Z,100251.17
2023-05-25T05:17:24.689Z,100249.73
2023-05-25T05:19:57.098Z,100246.77
2023-05-25T05:22:26.502Z,100247.92
2023-05-25T05:24:55.247Z,100245.76
2023-05-25T05:27:30.578Z,100246.36
2023-05-25T05:30:15.841Z,100251.27
2023-05-25T05:32:46.786Z,100250.58
2023-05-25T05:35:16.897Z,100252.63
2023-05-25T05:37:50.275Z,100249.73
2023-05-25T05:40:19.677Z,100255.32
2023-05-25T05:42:48.797Z,100259.72
2023-05-25T05:45:18.153Z,100262.95
2023-05-25T05:47:47.741Z,100262.12
2023-05-25T05:50:19.440Z,100265.77
2023-05-25T05:52:49.808Z,100263.17
2023-05-25T05:55:19.368Z,100267.01
2023-05-25T05:57:48.366Z,100272.02
2023-05-25T06:00:19.922Z,100266.72
2023-05-25T06:02:48.539Z,100270.95
2023-05-25T06:05:22.618Z,100273.16
2023-05-25T06:07:56.634Z,100271.06
2023-05-25T06:10:25.544Z,100271.33
2023-05-25T06:12:55.574Z,100269.23
2023-05-25T06:15:25.837Z,100270.98
2023-05-25T06:18:05.215Z,100272.14
2023-05-25T06:20:41.525Z,100267.76
2023-05-25T06:23:12.272Z,100271.41
2023-05-25T06:25:43.001Z,100272.42
2023-05-25T06:28:11.912Z,100269.05
2023-05-25T06:30:42.703Z,100266.35
2023-05-25T06:33:12.962Z,100267.05
2023-05-25T06:35:43.747Z,100269.11
2023-05-25T06:38:14.535Z,100270.67
2023-05-25T06:40:44.750Z,100270.70
2023-05-25T06:43:16.258Z,100270.25
2023-05-25T06:46:01.750Z,100271.52
2023-05-25T06:48:32.752Z,100273.89
2023-05-25T06:51:01.621Z,100272.73
2023-05-25T06:53:30.196Z,100271.67
2023-05-25T06:55:58.798Z,100269.59
2023-05-25T06:58:28.299Z,100269.81
2023-05-25T07:00:56.977Z,100272.27
2023-05-25T07:03:26.263Z,100274.23
2023-05-25T07:12:42.106Z,100268.10
2023-05-25T07:15:13.945Z,100266.34
2023-05-25T07:17:43.028Z,100264.59
2023-05-25T07:20:14.823Z,100264.82
2023-05-25T07:22:44.946Z,100267.91
2023-05-25T07:25:13.699Z,100271.48
2023-05-25T07:27:43.270Z,100272.94
2023-05-25T07:30:13.805Z,100271.31
2023-05-25T07:32:43.789Z,100272.44
2023-05-25T07:35:15.406Z,100269.86
2023-05-25T07:37:45.064Z,100270.30
2023-05-25T07:40:13.660Z,100272.89
2023-05-25T07:42:43.504Z,100271.02
2023-05-25T07:45:16.558Z,100268.48
2023-05-25T07:47:45.289Z,100269.65
2023-05-25T07:50:14.841Z,100272.09
2023-05-25T07:52:44.128Z,100269.56
2023-05-25T07:55:12.854Z,100266.77
2023-05-25T07:57:41.728Z,100261.95
2023-05-25T08:00:11.627Z,100262.19
2023-05-25T08:02:46.023Z,100256.69
2023-05-25T08:05:17.665Z,100261.38
2023-05-25T08:07:48.026Z,100264.01
2023-05-25T08:10:16.933Z,100266.11
2023-05-25T08:12:49.416Z,100263.75
2023-05-25T08:15:18.731Z,100256.41
2023-05-25T08:17:50.078Z,100253.06
2023-05-25T08:20:19.161Z,100250.70
2023-05-25T08:22:47.518Z,100255.01
2023-05-25T08:25:18.089Z,100257.86
2023-05-25T08:27:46.958Z,100254.84
2023-05-25T08:30:16.967Z,100250.23
2023-05-25T08:32:46.017Z,100248.15
2023-05-25T08:35:16.002Z,100251.90
2023-05-25T08:37:46.120Z,100248.16
2023-05-25T08:40:18.496Z,100247.36
2023-05-25T08:42:47.530Z,100247.70
2023-05-25T08:45:30.470Z,100250.14
2023-05-25T08:48:05.217Z,100254.02
2023-05-25T08:50:34.475Z,100251.35
2023-05-25T08:53:04.937Z,100251.20
2023-05-25T08:55:38.736Z,100249.50
2023-05-25T08:58:18.021Z,100248.10
2023-05-25T09:00:56.887Z,100245.63
2023-05-25T09:03:27.627Z,100248.31
2023-05-25T09:05:57.829Z,100252.01
2023-05-25T09:08:28.060Z,100258.06
2023-05-25T09:10:57.694Z,100260.77
2023-05-25T09:13:26.179Z,100263.03
2023-05-25T09:15:56.123Z,100265.68
2023-05-25T09:18:24.827Z,100268.45
2023-05-25T09:20:54.302Z,100267.45
2023-05-25T09:23:24.976Z,100263.11
2023-05-25T09:25:54.509Z,100258.37
2023-05-25T09:28:27.243Z,100260.58
2023-05-25T09:31:03.598Z,100257.63
2023-05-25T09:33:32.337Z,100256.92
2023-05-25T09:36:01.273Z,100253.88
2023-05-25T09:38:32.012Z,100250.94
2023-05-25T09:41:00.755Z,100247.36
2023-05-25T09:43:41.373Z,100249.20
2023-05-25T09:46:13.701Z,100247.70
2023-05-25T09:48:42.684Z,100246.95
2023-05-25T09:51:11.866Z,100239.83
2023-05-25T09:53:40.451Z,100241.30
2023-05-25T09:56:11.046Z,100234.61
2023-05-25T09:58:41.483Z,100227.23
2023-05-25T10:01:10.405Z,100217.97
2023-05-25T10:03:59.633Z,100216.70
2023-05-25T10:06:36.589Z,100218.22
2023-05-25T10:09:08.433Z,100217.98
2023-05-25T10:11:38.369Z,100215.94
2023-05-25T10:14:08.465Z,100216.48
2023-05-25T10:16:41.572Z,100220.86
2023-05-25T10:19:46.167Z,100223.45
2023-05-25T10:22:24.459Z,100226.27
2023-05-25T10:24:59.405Z,100234.48
2023-05-25T10:27:34.435Z,100236.16
2023-05-25T10:30:02.839Z,100242.27
2023-05-25T10:32:31.743Z,100248.36
2023-05-25T10:35:00.198Z,100255.60
2023-05-25T10:37:29.372Z,100251.11
2023-05-25T10:39:59.189Z,100249.27
2023-05-25T10:42:30.532Z,100252.79
2023-05-25T10:44:58.818Z,100243.35
2023-05-25T10:47:27.992Z,100241.12
2023-05-25T10:49:58.727Z,100242.10
2023-05-25T10:52:31.128Z,100245.20
2023-05-25T10:55:04.712Z,100245.09
2023-05-25T10:57:33.498Z,100238.30
2023-05-25T11:00:09.728Z,100232.05
2023-05-25T11:02:56.380Z,100230.80
2023-05-25T11:05:28.462Z,100230.77
2023-05-25T11:08:01.441Z,100230.36
2023-05-25T11:10:42.716Z,100233.52
2023-05-25T11:13:33.729Z,100231.73
2023-05-25T11:16:23.557Z,100228.60
2023-05-25T11:18:58.272Z,100222.33
2023-05-25T11:21:27.633Z,100226.23
2023-05-25T11:24:09.329Z,100228.06
2023-05-25T11:26:37.932Z,100229.73
2023-05-25T11:29:16.404Z,100232.52
2023-05-25T11:31:46.383Z,100233.95
2023-05-25T11:34:14.929Z,100237.24
2023-05-25T11:36:44.467Z,100242.60
2023-05-25T11:39:20.894Z,100242.00
2023-05-25T11:41:53.773Z,100237.91
2023-05-25T11:44:37.327Z,100241.54
2023-05-25T11:47:10.345Z,100241.79
2023-05-25T11:49:47.506Z,100245.50
2023-05-25T11:52:21.346Z,100245.20
2023-05-25T11:54:49.870Z,100244.13
2023-05-25T11:57:21.264Z,100241.79
2023-05-25T11:59:51.313Z,100236.60
2023-05-25T12:02:22.000Z,100232.33
2023-05-25T12:05:11.158Z,100227.73
2023-05-25T12:07:44.653Z,100220.65
2023-05-25T12:10:16.344Z,100215.66
2023-05-25T12:12:51.707Z,100206.89
2023-05-25T12:15:24.416Z,100200.05
2023-05-25T12:17:55.110Z,100201.74
2023-05-25T12:20:23.510Z,100203.31
2023-05-25T12:22:53.083Z,100197.95
2023-05-25T12:25:26.002Z,100199.33
2023-05-25T12:28:13.854Z,100204.46
2023-05-25T12:30:42.351Z,100203.70
2023-05-25T12:33:11.306Z,100201.91
2023-05-25T12:35:51.176Z,100206.14
2023-05-25T12:38:20.483Z,100204.43
2023-05-25T12:40:49.137Z,100205.61
2023-05-25T12:43:18.117Z,100206.23
2023-05-25T12:45:46.875Z,100208.58
2023-05-25T12:48:15.043Z,100201.98
2023-05-25T12:51:02.645Z,100201.23
2023-05-25T12:53:34.530Z,100200.98
2023-05-25T12:56:05.060Z,100196.36
2023-05-25T12:58:33.909Z,100198.36
2023-05-25T13:01:03.079Z,100206.75
2023-05-25T13:03:35.510Z,100209.13
2023-05-25T13:06:06.044Z,100206.88
2023-05-25T13:08:35.312Z,100205.21
2023-05-25T13:11:05.481Z,100202.88
2023-05-25T13:13:33.800Z,100201.55
2023-05-25T13:16:02.409Z,100198.94
2023-05-25T13:18:31.081Z,100201.34
2023-05-25T13:21:00.302Z,100204.36
2023-05-25T13:23:29.602Z,100208.29
2023-05-25T13:25:58.368Z,100208.34
2023-05-25T13:28:26.962Z,100214.33
2023-05-25T13:30:55.504Z,100215.83
2023-05-25T13:33:26.199Z,100215.02
2023-05-25T13:36:23.321Z,100214.86
2023-05-25T13:38:52.151Z,100217.06
2023-05-25T13:41:20.443Z,100220.08
2023-05-25T13:43:50.008Z,100222.05
2023-05-25T13:46:33.706Z,100220.38
2023-05-25T13:49:05.740Z,100220.36
2023-05-25T13:51:36.567Z,100216.23
2023-05-25T13:54:06.747Z,100213.66
2023-05-25T13:56:35.158Z,100215.36
2023-05-25T13:59:03.501Z,100208.08
2023-05-25T14:01:37.153Z,100214.05
2023-05-25T14:04:06.997Z,100214.48
2023-05-25T14:06:36.313Z,100207.39
2023-05-25T14:09:08.294Z,100213.81
2023-05-25T14:11:37.685Z,100209.77
2023-05-25T14:14:13.677Z,100207.42
2023-05-25T14:16:49.289Z,100215.01
2023-05-25T14:19:18.052Z,100216.30
2023-05-25T14:21:49.763Z,100214.10
2023-05-25T14:24:22.640Z,100217.08
2023-05-25T14:26:51.688Z,100223.02
2023-05-25T14:29:20.736Z,100215.12
2023-05-25T14:31:49.225Z,100211.43
2023-05-25T14:34:19.608Z,100207.92
2023-05-25T14:36:49.406Z,100204.40
2023-05-25T14:39:18.319Z,100202.14
2023-05-25T14:41:48.103Z,100199.66
2023-05-25T14:44:18.114Z,100197.64
2023-05-25T14:46:47.762Z,100197.51
2023-05-25T14:49:18.594Z,100196.48
2023-05-25T14:51:47.149Z,100189.58
2023-05-25T14:54:15.666Z,100189.93
2023-05-25T14:56:45.271Z,100191.89
2023-05-25T14:59:13.615Z,100189.67
2023-05-25T15:01:45.325Z,100190.10
2023-05-25T15:04:17.694Z,100191.83
2023-05-25T15:06:46.266Z,100193.36
2023-05-25T15:09:17.204Z,100190.42
2023-05-25T15:11:47.517Z,100189.34
2023-05-25T15:14:17.063Z,100188.20
2023-05-25T15:16:46.014Z,100186.00
2023-05-25T15:19:17.313Z,100188.41
2023-05-25T15:21:46.961Z,100188.02
2023-05-25T15:24:17.483Z,100190.25
2023-05-25T15:26:50.915Z,100185.14
2023-05-25T15:29:20.666Z,100179.34
2023-05-25T15:31:55.111Z,100182.11
2023-05-25T15:34:24.033Z,100183.70
2023-05-25T15:36:54.638Z,100184.86
2023-05-25T15:39:23.122Z,100183.80
2023-05-25T15:41:51.791Z,100185.95
2023-05-25T15:44:20.622Z,100187.58
2023-05-25T15:46:51.795Z,100188.04
2023-05-25T15:49:21.675Z,100194.17
2023-05-25T15:51:54.148Z,100193.88
2023-05-25T15:54:22.508Z,100191.02
2023-05-25T15:56:50.913Z,100186.03
2023-05-25T15:59:19.832Z,100188.75
2023-05-25T16:01:48.846Z,100189.84
2023-05-25T16:04:18.541Z,100189.19
2023-05-25T16:06:49.536Z,100191.66
2023-05-25T16:09:17.961Z,100189.56
2023-05-25T16:11:46.870Z,100185.05
2023-05-25T16:14:15.730Z,100182.22
2023-05-25T16:16:44.557Z,100177.99
2023-05-25T16:19:13.975Z,100176.67
2023-05-25T16:21:42.905Z,100179.89
2023-05-25T16:24:13.471Z,100177.48
2023-05-25T16:26:41.901Z,100175.07
2023-05-25T16:29:10.531Z,100177.31
2023-05-25T16:31:38.999Z,100186.47
2023-05-25T16:34:08.028Z,100181.53
2023-05-25T16:36:36.407Z,100179.58
2023-05-25T16:39:05.628Z,100179.40
2023-05-25T16:41:34.112Z,100180.98
2023-05-25T16:44:03.848Z,100181.25
2023-05-25T16:46:34.309Z,100177.67
2023-05-25T16:49:04.708Z,100180.20
2023-05-25T16:51:33.391Z,100177.18
2023-05-25T16:54:02.238Z,100168.36
2023-05-25T16:56:31.339Z,100165.75
2023-05-25T16:58:59.500Z,100168.23
2023-05-25T17:01:27.989Z,100167.44
2023-05-25T17:03:58.588Z,100167.06
2023-05-25T17:06:27.339Z,100165.90
2023-05-25T17:08:56.199Z,100164.89
2023-05-25T17:11:27.044Z,100163.98
2023-05-25T17:13:55.615Z,100164.95
2023-05-25T17:16:26.406Z,100166.58
2023-05-25T17:18:58.985Z,100171.60
2023-05-25T17:21:27.570Z,100172.31
2023-05-25T17:23:57.012Z,100174.31
2023-05-25T17:26:25.644Z,100176.80
2023-05-25T17:28:55.650Z,100169.90
2023-05-25T17:31:24.434Z,100168.08
2023-05-25T17:33:54.627Z,100163.30
2023-05-25T17:36:27.006Z,100165.44
2023-05-25T17:38:56.708Z,100167.42
2023-05-25T17:41:26.009Z,100164.70
2023-05-25T17:43:56.455Z,100166.02
2023-05-25T17:46:24.936Z,100170.95
2023-05-25T17:48:53.809Z,100172.77
2023-05-25T17:51:23.416Z,100171.70
2023-05-25T17:53:51.590Z,100173.37
2023-05-25T17:56:20.515Z,100173.54
2023-05-25T17:58:50.021Z,100175.31
2023-05-25T18:01:21.298Z,100176.07
2023-05-25T18:03:54.026Z,100176.49
2023-05-25T18:06:23.501Z,100177.52
2023-05-25T18:08:52.310Z,100181.69
2023-05-25T18:11:21.411Z,100183.03
2023-05-25T18:13:51.332Z,100182.85
2023-05-25T18:16:23.601Z,100182.84
2023-05-25T18:18:53.945Z,100186.30
2023-05-25T18:21:23.688Z,100195.11
2023-05-25T18:23:53.170Z,100195.70
2023-05-25T18:26:22.750Z,100196.90
2023-05-25T18:28:52.234Z,100201.64
2023-05-25T18:31:21.275Z,100201.85
2023-05-25T18:33:50.042Z,100203.48
2023-05-25T18:36:21.873Z,100205.02
2023-05-25T18:38:51.393Z,100206.32
2023-05-25T18:41:21.598Z,100205.70
2023-05-25T18:43:51.119Z,100207.48
2023-05-25T18:46:19.654Z,100206.16
2023-05-25T18:48:49.127Z,100208.85
2023-05-25T18:51:17.877Z,100207.73
2023-05-25T18:53:46.581Z,100207.80
2023-05-25T18:56:15.257Z,100208.46
2023-05-25T18:58:43.524Z,100205.40
2023-05-25T19:01:11.735Z,100205.34
2023-05-25T19:03:40.698Z,100206.76
2023-05-25T19:06:11.583Z,100208.38
2023-05-25T19:08:41.952Z,100207.17
2023-05-25T19:11:11.282Z,100205.05
2023-05-25T19:13:41.067Z,100205.79
2023-05-25T19:16:10.217Z,100202.75
2023-05-25T19:18:39.999Z,100203.98
2023-05-25T19:21:09.115Z,100201.64
2023-05-25T19:23:37.937Z,100198.47
2023-05-25T19:26:06.554Z,100198.29
2023-05-25T19:28:37.237Z,100197.86
2023-05-25T19:31:05.500Z,100195.19
2023-05-25T19:33:35.879Z,100195.96
2023-05-25T19:36:06.165Z,100189.88
2023-05-25T19:38:41.801Z,100193.20
2023-05-25T19:41:13.972Z,100195.67
2023-05-25T19:43:43.375Z,100193.20
2023-05-25T19:46:12.019Z,100195.00
2023-05-25T19:48:41.743Z,100197.70
2023-05-25T19:51:09.913Z,100197.95
2023-05-25T19:53:38.074Z,100200.93
2023-05-25T19:56:06.822Z,100198.80
2023-05-25T19:58:37.348Z,100200.61
2023-05-25T20:01:07.294Z,100203.43
2023-05-25T20:03:36.514Z,100205.79
2023-05-25T20:06:05.933Z,100207.67
2023-05-25T20:08:34.579Z,100208.68
2023-05-25T20:11:05.980Z,100204.75
2023-05-25T20:13:34.415Z,100209.84
2023-05-25T20:16:02.524Z,100214.14
2023-05-25T20:18:31.422Z,100221.71
2023-05-25T20:21:00.004Z,100221.69
2023-05-25T20:23:28.234Z,100221.39
2023-05-25T20:25:56.709Z,100217.63
2023-05-25T20:28:26.162Z,100217.55
2023-05-25T20:30:54.602Z,100214.56
2023-05-25T20:33:24.657Z,100215.13
2023-05-25T20:35:53.716Z,100215.27
2023-05-25T20:38:24.678Z,100216.75
2023-05-25T20:40:55.484Z,100217.64
2023-05-25T20:43:23.598Z,100218.11
2023-05-25T20:45:54.120Z,100215.48
2023-05-25T20:48:22.581Z,100213.62
2023-05-25T20:50:50.952Z,100217.91
2023-05-25T20:53:20.053Z,100214.85
2023-05-25T20:55:48.632Z,100212.47
2023-05-25T20:58:16.903Z,100208.13
2023-05-25T21:00:47.287Z,100204.44
2023-05-25T21:03:17.870Z,100201.27
2023-05-25T21:05:47.993Z,100198.78
2023-05-25T21:08:17.690Z,100193.52
2023-05-25T21:10:47.351Z,100193.85
2023-05-25T21:13:15.574Z,100192.98
2023-05-25T21:15:44.035Z,100195.83
2023-05-25T21:18:15.308Z,100194.59
2023-05-25T21:20:45.874Z,100195.77
2023-05-25T21:23:14.308Z,100194.27
2023-05-25T21:25:42.658Z,100192.44
2023-05-25T21:28:11.451Z,100191.90
2023-05-25T21:30:40.267Z,100190.84
2023-05-25T21:33:09.563Z,100191.30
2023-05-25T21:35:38.451Z,100194.73
2023-05-25T21:38:06.663Z,100195.91
2023-05-25T21:40:35.727Z,100193.80
2023-05-25T21:43:04.814Z,100191.16
2023-05-25T21:45:33.282Z,100188.06
2023-05-25T21:48:05.618Z,100187.45
2023-05-25T21:50:37.329Z,100192.88
2023-05-25T21:53:06.828Z,100185.39
2023-05-25T21:55:35.124Z,100186.89
2023-05-25T21:58:04.112Z,100187.79
2023-05-25T22:00:35.226Z,100188.33
2023-05-25T22:03:04.435Z,100190.00
2023-05-25T22:05:35.913Z,100193.02
2023-05-25T22:08:04.997Z,100191.60
2023-05-25T22:10:33.204Z,100193.44
2023-05-25T22:13:02.953Z,100189.67
2023-05-25T22:15:31.873Z,100188.23
2023-05-25T22:18:02.131Z,100191.16
2023-05-25T22:20:31.602Z,100188.06
2023-05-25T22:23:00.473Z,100188.75
2023-05-25T22:25:29.173Z,100188.64
2023-05-25T22:27:59.689Z,100186.39
2023-05-25T22:30:29.320Z,100191.10
2023-05-25T22:32:59.159Z,100186.69
2023-05-25T22:35:28.771Z,100185.17
2023-05-25T22:37:57.184Z,100183.43
2023-05-25T22:40:26.101Z,100181.52
2023-05-25T22:42:54.484Z,100183.30
2023-05-25T22:45:23.614Z,100183.98
2023-05-25T22:47:52.256Z,100184.44
2023-05-25T22:50:20.534Z,100184.63
2023-05-25T22:52:49.522Z,100184.46
2023-05-25T22:55:18.103Z,100184.22
2023-05-25T22:57:46.494Z,100179.41
2023-05-25T23:00:15.099Z,100175.67
2023-05-25T23:02:43.749Z,100176.95
2023-05-25T23:05:12.560Z,100173.65
2023-05-25T23:07:42.541Z,100175.13
2023-05-25T23:10:11.817Z,100173.18
2023-05-25T23:12:40.177Z,100175.31
2023-05-25T23:15:10.236Z,100173.16
2023-05-25T23:17:39.960Z,100170.75
2023-05-25T23:20:09.889Z,100172.45
2023-05-25T23:22:38.557Z,100171.83
2023-05-25T23:25:08.110Z,100170.60
2023-05-25T23:27:36.874Z,100172.65
2023-05-25T23:30:07.287Z,100171.91
2023-05-25T23:32:36.849Z,100173.52
2023-05-25T23:35:05.691Z,100178.23
2023-05-25T23:37:34.289Z,100173.75
2023-05-25T23:40:02.680Z,100171.03
2023-05-25T23:42:39.898Z,100175.56
2023-05-25T23:45:09.249Z,100177.55
2023-05-25T23:47:38.876Z,100173.48
2023-05-25T23:50:07.740Z,100174.69
2023-05-25T23:52:35.889Z,100170.27
2023-05-25T23:55:07.210Z,100169.17
2023-05-25T23:57:38.184Z,100170.27
